Time;durP1;ratioP1;P1;durP2;ratioP2;P2;SDS_P1;SDS_P2;PMS_P1;PMS_P2;Temp;Humidity;BMP_temperature;BMP_pressure;BME280_temperature;BME280_humidity;BME280_pressure;Samples;Min_cycle;Max_cycle;Signal;HPM_P1;HPM_P2
2023/05/19 00:02:17;;;;;;;7.28;6.47;;;19.10;1.00;;;;;;5047529;28;20455;-62
2023/05/19 00:04:43;;;;;;;9.07;6.32;;;19.10;1.00;;;;;;5052178;28;20031;-62
2023/05/19 00:07:16;;;;;;;9.32;6.35;;;19.00;1.00;;;;;;5053291;28;20446;-62
2023/05/19 00:09:42;;;;;;;7.40;6.05;;;19.00;1.00;;;;;;5053288;28;20036;-63
2023/05/19 00:12:09;;;;;;;7.78;6.68;;;19.00;1.00;;;;;;5052062;28;20038;-62
2023/05/19 00:14:35;;;;;;;9.10;6.75;;;19.00;1.00;;;;;;5053374;28;20102;-62
2023/05/19 00:17:01;;;;;;;9.00;7.03;;;19.00;1.00;;;;;;5050341;28;20391;-63
2023/05/19 00:19:30;;;;;;;8.85;6.88;;;19.00;1.00;;;;;;5051249;28;20368;-62
2023/05/19 00:21:57;;;;;;;9.48;7.45;;;19.00;1.00;;;;;;5050468;28;20425;-63
2023/05/19 00:24:22;;;;;;;10.23;8.27;;;18.90;1.00;;;;;;5052868;28;20388;-63
2023/05/19 00:26:48;;;;;;;8.48;7.45;;;18.90;1.00;;;;;;5051944;28;20029;-62
2023/05/19 00:29:17;;;;;;;8.80;7.00;;;18.90;1.00;;;;;;5051514;28;20037;-62
2023/05/19 00:31:43;;;;;;;8.52;7.35;;;18.80;1.00;;;;;;5049394;28;20032;-62
2023/05/19 00:34:08;;;;;;;8.90;7.13;;;18.80;1.00;;;;;;5051852;28;20425;-62
2023/05/19 00:36:34;;;;;;;10.52;6.20;;;18.80;1.00;;;;;;5050678;28;20074;-62
2023/05/19 00:39:00;;;;;;;7.13;6.20;;;18.80;1.00;;;;;;5051979;28;20167;-63
2023/05/19 00:41:26;;;;;;;7.70;6.68;;;18.80;1.00;;;;;;5052007;28;20036;-62
2023/05/19 00:43:51;;;;;;;7.97;6.72;;;18.80;1.00;;;;;;5052794;28;20032;-62
2023/05/19 00:46:18;;;;;;;8.07;6.30;;;18.70;1.00;;;;;;5052816;28;20033;-62
2023/05/19 00:48:44;;;;;;;8.48;6.28;;;18.70;1.00;;;;;;5052473;28;20025;-62
2023/05/19 00:51:13;;;;;;;7.47;6.28;;;18.70;1.00;;;;;;5043643;28;20033;-62
2023/05/19 00:53:39;;;;;;;7.15;6.32;;;18.70;1.00;;;;;;5044563;28;20048;-62
2023/05/19 00:56:05;;;;;;;8.90;6.40;;;18.70;1.00;;;;;;5039234;28;20088;-62
2023/05/19 00:58:32;;;;;;;7.32;6.40;;;18.60;1.00;;;;;;5050746;28;20044;-62
2023/05/19 01:01:02;;;;;;;7.00;5.45;;;18.60;1.00;;;;;;5044153;28;20028;-62
2023/05/19 01:03:29;;;;;;;7.78;5.57;;;18.70;1.00;;;;;;5051639;28;20057;-62
2023/05/19 01:05:55;;;;;;;6.00;5.35;;;18.70;1.00;;;;;;5050741;28;20072;-62
2023/05/19 01:08:21;;;;;;;7.97;5.75;;;18.60;1.00;;;;;;5052451;28;20025;-62
2023/05/19 01:10:46;;;;;;;6.85;5.28;;;18.70;1.00;;;;;;5048691;28;20675;-62
2023/05/19 01:13:12;;;;;;;6.07;5.47;;;18.60;1.00;;;;;;5049059;28;20037;-62
2023/05/19 01:16:00;;;;;;;7.25;4.70;;;18.60;1.00;;;;;;5050331;28;20056;-62
2023/05/19 01:18:37;;;;;;;7.28;5.10;;;18.60;1.00;;;;;;5051527;28;20082;-62
2023/05/19 01:21:43;;;;;;;5.95;5.45;;;18.60;1.00;;;;;;5051332;28;20071;-62
2023/05/19 01:24:36;;;;;;;7.18;5.30;;;18.60;1.00;;;;;;5042965;28;20057;-62
2023/05/19 01:27:12;;;;;;;6.88;5.22;;;18.60;1.00;;;;;;5045449;28;20039;-62
2023/05/19 01:30:16;;;;;;;7.63;4.90;;;18.60;1.00;;;;;;5050796;28;20111;-62
2023/05/19 01:32:42;;;;;;;7.07;5.22;;;18.60;1.00;;;;;;5045617;28;20025;-62
2023/05/19 01:35:10;;;;;;;5.10;4.07;;;18.60;1.00;;;;;;5042136;28;20044;-62
2023/05/19 01:37:38;;;;;;;9.48;5.25;;;18.60;1.00;;;;;;5016152;28;20041;-62
2023/05/19 01:40:06;;;;;;;6.40;4.47;;;18.60;1.00;;;;;;5048790;28;20029;-62
2023/05/19 01:42:36;;;;;;;6.18;4.30;;;18.50;1.00;;;;;;5049093;28;20041;-62
2023/05/19 01:45:05;;;;;;;5.20;4.47;;;18.50;1.00;;;;;;5050757;28;20025;-62
2023/05/19 01:47:33;;;;;;;5.93;4.88;;;18.50;1.00;;;;;;5050141;28;20029;-62
2023/05/19 01:49:59;;;;;;;6.57;4.95;;;18.50;1.00;;;;;;5049278;28;20020;-62
2023/05/19 01:52:25;;;;;;;6.47;4.40;;;18.50;1.00;;;;;;5051654;28;20025;-62
2023/05/19 01:54:51;;;;;;;5.57;4.55;;;18.50;1.00;;;;;;5050382;28;20032;-63
2023/05/19 01:57:51;;;;;;;5.50;4.53;;;18.40;1.00;;;;;;5051755;28;20029;-63
2023/05/19 02:00:51;;;;;;;6.13;4.07;;;18.50;1.00;;;;;;5001669;28;20034;-62
2023/05/19 02:03:25;;;;;;;5.60;5.07;;;18.40;1.00;;;;;;5050576;28;20091;-62
2023/05/19 02:05:54;;;;;;;;;;;18.40;1.00;;;;;;5050264;28;20032;-62
2023/05/19 02:08:28;;;;;;;7.50;6.47;;;18.30;1.00;;;;;;5047422;28;19920;-62
2023/05/19 02:11:02;;;;;;;8.32;6.60;;;18.30;1.00;;;;;;5042387;28;20036;-62
2023/05/19 02:13:33;;;;;;;9.00;6.50;;;18.30;1.00;;;;;;5053766;28;20103;-62
2023/05/19 02:16:04;;;;;;;7.72;6.90;;;18.30;1.00;;;;;;5056653;28;20025;-63
2023/05/19 02:18:32;;;;;;;8.52;7.63;;;18.30;1.00;;;;;;5055210;28;20489;-63
2023/05/19 02:20:58;;;;;;;6.80;6.20;;;18.30;1.00;;;;;;5054886;28;20111;-62
2023/05/19 02:23:23;;;;;;;7.18;6.45;;;18.20;1.00;;;;;;5052833;28;20102;-63
2023/05/19 02:25:49;;;;;;;7.63;6.82;;;18.20;1.00;;;;;;5038783;28;20197;-62
2023/05/19 02:28:15;;;;;;;8.45;7.32;;;18.20;1.00;;;;;;5047653;28;20021;-63
2023/05/19 02:30:40;;;;;;;8.20;7.40;;;18.20;1.00;;;;;;5052744;28;20032;-62
2023/05/19 02:33:06;;;;;;;8.93;7.00;;;18.10;1.00;;;;;;5054490;28;20112;-62
2023/05/19 02:35:32;;;;;;;9.65;7.75;;;18.10;1.00;;;;;;5050574;28;20035;-62
2023/05/19 02:37:58;;;;;;;8.52;7.13;;;18.10;1.00;;;;;;5049028;28;20094;-62
2023/05/19 02:40:24;;;;;;;8.68;7.72;;;18.10;1.00;;;;;;5053492;28;20032;-62
2023/05/19 02:42:49;;;;;;;8.45;7.18;;;18.10;1.00;;;;;;5053844;28;20052;-62
2023/05/19 02:45:15;;;;;;;10.38;7.57;;;18.10;1.00;;;;;;5055543;28;20456;-62
2023/05/19 02:47:41;;;;;;;7.93;7.07;;;18.10;1.00;;;;;;5054749;28;20478;-62
2023/05/19 02:50:07;;;;;;;8.60;7.70;;;18.10;1.00;;;;;;5045950;28;20033;-63
2023/05/19 02:52:33;;;;;;;8.65;6.85;;;18.10;1.00;;;;;;5053967;28;20383;-62
2023/05/19 02:54:59;;;;;;;10.00;8.13;;;18.10;1.00;;;;;;5053759;28;20032;-62
2023/05/19 02:57:25;;;;;;;9.15;7.35;;;18.10;1.00;;;;;;5053992;28;20439;-62
2023/05/19 02:59:51;;;;;;;11.13;8.23;;;18.10;1.00;;;;;;5055500;28;20430;-63
2023/05/19 03:02:17;;;;;;;8.32;7.53;;;18.10;1.00;;;;;;5052715;28;20073;-62
2023/05/19 03:04:43;;;;;;;8.85;7.82;;;18.10;1.00;;;;;;5053539;28;20033;-63
2023/05/19 03:07:09;;;;;;;8.80;8.00;;;18.00;1.00;;;;;;5053902;28;20028;-62
2023/05/19 03:09:38;;;;;;;7.85;7.05;;;18.10;1.00;;;;;;5054161;28;20529;-62
2023/05/19 03:12:06;;;;;;;9.73;8.20;;;18.00;1.00;;;;;;5051731;28;20033;-62
2023/05/19 03:14:33;;;;;;;13.23;8.43;;;18.00;1.00;;;;;;5054535;28;20646;-62
2023/05/19 03:16:59;;;;;;;9.57;8.02;;;17.90;1.00;;;;;;5053946;28;20029;-62
2023/05/19 03:19:25;;;;;;;10.93;8.15;;;17.90;1.00;;;;;;5052616;28;20051;-62
2023/05/19 03:21:51;;;;;;;7.90;7.20;;;18.00;1.00;;;;;;5052779;28;20344;-62
2023/05/19 03:24:17;;;;;;;10.18;9.15;;;18.00;1.00;;;;;;5054138;28;20108;-62
2023/05/19 03:26:43;;;;;;;9.93;8.93;;;18.00;1.00;;;;;;5054292;28;20108;-62
2023/05/19 03:29:09;;;;;;;10.00;8.40;;;18.00;1.00;;;;;;5052111;28;20028;-62
2023/05/19 03:31:34;;;;;;;10.32;8.40;;;17.90;1.00;;;;;;5051338;28;20070;-62
2023/05/19 03:34:00;;;;;;;11.18;8.02;;;17.90;1.00;;;;;;5052920;28;20099;-62
2023/05/19 03:36:30;;;;;;;9.18;8.27;;;17.90;1.00;;;;;;5046628;28;20052;-62
2023/05/19 03:38:56;;;;;;;10.70;8.50;;;17.90;1.00;;;;;;5050340;28;20036;-62
2023/05/19 03:41:22;;;;;;;9.48;8.50;;;18.00;1.00;;;;;;5049349;28;20029;-62
2023/05/19 03:43:48;;;;;;;11.45;8.57;;;18.00;1.00;;;;;;5054378;28;20017;-62
2023/05/19 03:46:13;;;;;;;9.23;8.10;;;18.00;1.00;;;;;;5052788;28;20474;-62
2023/05/19 03:48:40;;;;;;;11.63;8.52;;;18.00;1.00;;;;;;5052375;28;20490;-62
2023/05/19 03:51:05;;;;;;;10.15;7.93;;;18.00;1.00;;;;;;5050782;28;20043;-62
2023/05/19 03:53:31;;;;;;;11.63;8.90;;;17.90;1.00;;;;;;5053802;28;20021;-62
2023/05/19 03:55:58;;;;;;;8.52;7.72;;;18.00;1.00;;;;;;5050807;28;20033;-62
2023/05/19 03:58:24;;;;;;;8.43;7.47;;;17.90;1.00;;;;;;5053673;28;20128;-62
2023/05/19 04:00:50;;;;;;;8.95;7.90;;;17.90;1.00;;;;;;5053625;28;20029;-62
2023/05/19 04:03:15;;;;;;;8.20;7.40;;;18.00;1.00;;;;;;5053291;28;20028;-62
2023/05/19 04:05:41;;;;;;;9.35;6.78;;;18.00;1.00;;;;;;5052174;28;20036;-62
2023/05/19 04:08:07;;;;;;;11.18;7.10;;;18.00;1.00;;;;;;5048117;28;20020;-62
2023/05/19 04:10:32;;;;;;;8.20;7.13;;;18.00;1.00;;;;;;5052574;28;20348;-62
2023/05/19 04:12:58;;;;;;;10.55;6.78;;;17.90;1.00;;;;;;5051959;28;20107;-63
2023/05/19 04:15:24;;;;;;;8.90;6.25;;;17.90;1.00;;;;;;5053218;28;20021;-63
2023/05/19 04:17:50;;;;;;;7.50;6.13;;;18.00;1.00;;;;;;5051681;28;20044;-62
2023/05/19 04:20:15;;;;;;;8.13;5.57;;;17.90;1.00;;;;;;5052790;28;20051;-62
2023/05/19 04:22:41;;;;;;;8.80;6.05;;;17.90;1.00;;;;;;5050010;28;20021;-62
2023/05/19 04:25:07;;;;;;;8.50;5.95;;;17.90;1.00;;;;;;5052915;28;20029;-62
2023/05/19 04:27:37;;;;;;;7.32;5.57;;;17.90;1.00;;;;;;5052806;28;20110;-62
2023/05/19 04:30:04;;;;;;;7.68;5.50;;;17.90;1.00;;;;;;5052950;28;20356;-62
2023/05/19 04:32:30;;;;;;;11.55;6.75;;;17.80;1.00;;;;;;5050857;28;20025;-62
2023/05/19 04:34:57;;;;;;;6.97;5.45;;;17.90;1.00;;;;;;5052798;28;20075;-62
2023/05/19 04:37:24;;;;;;;8.75;5.72;;;17.90;1.00;;;;;;5047206;28;20049;-61
2023/05/19 04:39:51;;;;;;;7.35;5.50;;;17.90;1.00;;;;;;5042492;28;20033;-62
2023/05/19 04:42:18;;;;;;;8.57;5.82;;;17.90;1.00;;;;;;5045453;28;20035;-62
2023/05/19 04:44:50;;;;;;;8.25;5.32;;;17.90;1.00;;;;;;5051222;28;20056;-62
2023/05/19 04:47:16;;;;;;;8.63;5.00;;;17.90;1.00;;;;;;5080624;28;20025;-62
2023/05/19 04:49:42;;;;;;;6.22;4.85;;;17.90;1.00;;;;;;5053026;28;20390;-62
2023/05/19 04:52:09;;;;;;;7.25;4.90;;;17.90;1.00;;;;;;5049358;28;20120;-62
2023/05/19 04:54:36;;;;;;;7.10;5.07;;;17.90;1.00;;;;;;5044817;28;20033;-62
2023/05/19 04:57:03;;;;;;;6.53;4.68;;;17.80;1.00;;;;;;5045229;28;20390;-62
2023/05/19 04:59:29;;;;;;;8.07;4.93;;;17.80;1.00;;;;;;5052513;28;20045;-62
2023/05/19 05:01:55;;;;;;;7.30;4.85;;;17.80;1.00;;;;;;5049321;28;20032;-62
2023/05/19 05:04:22;;;;;;;6.82;4.75;;;17.80;1.00;;;;;;5052117;28;20466;-62
2023/05/19 05:06:49;;;;;;;6.45;4.90;;;17.80;1.00;;;;;;5050179;28;20032;-61
2023/05/19 05:09:15;;;;;;;8.05;5.18;;;17.80;1.00;;;;;;5051401;28;20025;-62
2023/05/19 05:11:41;;;;;;;7.10;4.50;;;17.70;1.00;;;;;;5051752;28;20043;-62
2023/05/19 05:14:07;;;;;;;5.82;4.45;;;17.70;1.00;;;;;;5049722;28;20367;-62
2023/05/19 05:16:33;;;;;;;7.20;4.70;;;17.70;1.00;;;;;;5052103;28;20036;-62
2023/05/19 05:19:00;;;;;;;8.57;5.13;;;17.70;1.00;;;;;;5051988;28;20044;-62
2023/05/19 05:21:27;;;;;;;8.50;4.50;;;17.70;1.00;;;;;;5050665;28;20021;-62
2023/05/19 05:23:53;;;;;;;9.98;5.38;;;17.70;1.00;;;;;;5049821;28;20029;-62
2023/05/19 05:26:23;;;;;;;5.70;4.03;;;17.70;1.00;;;;;;5051894;28;20358;-62
2023/05/19 05:28:48;;;;;;;6.95;4.80;;;17.70;1.00;;;;;;5051330;28;20029;-62
2023/05/19 05:31:15;;;;;;;7.60;4.47;;;17.70;1.00;;;;;;5050364;28;20040;-62
2023/05/19 05:33:40;;;;;;;7.85;4.68;;;17.60;1.00;;;;;;5049154;28;20111;-62
2023/05/19 05:36:06;;;;;;;6.95;4.53;;;17.60;1.00;;;;;;5048100;28;20117;-62
2023/05/19 05:38:32;;;;;;;7.18;4.10;;;17.60;1.00;;;;;;5049976;28;20045;-62
2023/05/19 05:40:59;;;;;;;5.47;3.90;;;17.60;1.00;;;;;;5050244;28;20029;-62
2023/05/19 05:43:24;;;;;;;7.50;4.78;;;17.60;1.00;;;;;;5050749;28;20503;-62
2023/05/19 05:45:50;;;;;;;5.60;4.40;;;17.60;1.00;;;;;;5050503;28;20029;-62
2023/05/19 05:48:16;;;;;;;7.57;4.65;;;17.60;1.00;;;;;;5051294;28;20028;-62
2023/05/19 05:50:43;;;;;;;7.68;4.57;;;17.50;1.00;;;;;;5049999;28;20029;-62
2023/05/19 05:53:16;;;;;;;5.93;4.38;;;17.60;1.00;;;;;;5051891;28;20479;-62
2023/05/19 05:55:42;;;;;;;5.40;4.18;;;17.70;1.00;;;;;;5051495;28;20037;-62
2023/05/19 05:58:09;;;;;;;7.00;4.53;;;17.60;1.00;;;;;;5050381;28;20120;-62
2023/05/19 06:00:36;;;;;;;6.93;4.53;;;17.70;1.00;;;;;;5048149;28;20017;-62
2023/05/19 06:03:03;;;;;;;9.32;4.68;;;17.70;1.00;;;;;;5041570;28;20033;-62
2023/05/19 06:05:29;;;;;;;7.78;4.65;;;17.70;1.00;;;;;;5051769;28;20033;-62
2023/05/19 06:07:54;;;;;;;9.40;4.47;;;17.60;1.00;;;;;;5049092;28;20036;-62
2023/05/19 06:10:20;;;;;;;6.28;4.57;;;17.70;1.00;;;;;;5050351;28;20111;-61
2023/05/19 06:12:46;;;;;;;8.93;5.25;;;17.70;1.00;;;;;;5050402;28;20032;-62
2023/05/19 06:15:12;;;;;;;6.60;4.47;;;17.80;1.00;;;;;;5051430;28;20029;-62
2023/05/19 06:17:38;;;;;;;6.55;4.80;;;17.90;1.00;;;;;;5038605;28;20117;-62
2023/05/19 06:20:05;;;;;;;8.05;5.47;;;17.90;1.00;;;;;;5051325;28;20064;-62
2023/05/19 06:22:30;;;;;;;7.85;4.80;;;17.90;1.00;;;;;;5045614;28;20029;-62
2023/05/19 06:24:56;;;;;;;7.10;4.90;;;18.00;1.00;;;;;;5050064;28;20494;-62
2023/05/19 06:27:35;;;;;;;6.70;4.95;;;18.00;1.00;;;;;;5049945;28;20053;-62
2023/05/19 06:30:00;;;;;;;7.78;5.35;;;18.00;1.00;;;;;;5048212;28;20059;-62
2023/05/19 06:32:28;;;;;;;8.05;5.10;;;18.00;1.00;;;;;;5049324;28;20025;-62
2023/05/19 06:34:54;;;;;;;7.63;5.57;;;18.00;1.00;;;;;;5049124;28;20028;-62
2023/05/19 06:37:24;;;;;;;7.03;5.18;;;18.10;1.00;;;;;;5048825;28;20091;-62
2023/05/19 06:39:52;;;;;;;7.85;5.43;;;18.20;1.00;;;;;;5042309;28;20488;-62
2023/05/19 06:42:21;;;;;;;7.78;5.25;;;18.00;1.00;;;;;;5051214;28;20060;-62
2023/05/19 06:44:48;;;;;;;7.93;5.68;;;18.10;1.00;;;;;;5050046;28;20086;-61
2023/05/19 06:47:14;;;;;;;11.25;6.43;;;18.20;1.00;;;;;;5050995;28;20561;-63
2023/05/19 06:49:39;;;;;;;7.20;6.10;;;18.10;1.00;;;;;;5045083;28;20104;-62
2023/05/19 06:52:05;;;;;;;7.75;5.72;;;18.10;1.00;;;;;;5041159;28;20032;-62
2023/05/19 06:54:31;;;;;;;10.82;6.68;;;18.10;1.00;;;;;;5045459;28;20029;-62
2023/05/19 06:56:56;;;;;;;11.45;5.90;;;18.20;1.00;;;;;;5050287;28;20025;-62
2023/05/19 06:59:22;;;;;;;10.93;6.72;;;18.20;1.00;;;;;;5039228;28;20033;-62
2023/05/19 07:01:47;;;;;;;9.55;6.55;;;18.30;1.00;;;;;;5044965;28;20021;-62
2023/05/19 07:04:14;;;;;;;10.40;6.55;;;18.30;1.00;;;;;;5063688;28;20118;-62
2023/05/19 07:06:39;;;;;;;8.77;6.18;;;18.20;1.00;;;;;;5050992;28;20028;-62
2023/05/19 07:09:05;;;;;;;10.75;7.03;;;18.20;1.00;;;;;;5052854;28;20037;-62
2023/05/19 07:11:31;;;;;;;10.88;6.03;;;18.20;1.00;;;;;;5053219;28;20526;-62
2023/05/19 07:13:56;;;;;;;9.13;5.85;;;18.20;1.00;;;;;;5053236;28;20394;-62
2023/05/19 07:16:22;;;;;;;9.90;6.03;;;18.20;1.00;;;;;;5053238;28;20051;-62
2023/05/19 07:18:48;;;;;;;8.70;6.13;;;18.10;1.00;;;;;;5051169;28;20029;-62
2023/05/19 07:21:13;;;;;;;9.43;6.80;;;18.20;1.00;;;;;;5053482;28;20032;-62
2023/05/19 07:23:39;;;;;;;10.52;7.03;;;18.20;1.00;;;;;;5051884;28;20535;-62
2023/05/19 07:26:05;;;;;;;8.30;6.15;;;18.20;1.00;;;;;;5047358;28;20067;-62
2023/05/19 07:28:31;;;;;;;9.05;6.30;;;18.20;1.00;;;;;;5052100;28;20112;-62
2023/05/19 07:30:56;;;;;;;10.23;6.28;;;18.10;1.00;;;;;;5050006;28;20029;-62
2023/05/19 07:33:22;;;;;;;9.93;6.30;;;18.20;1.00;;;;;;5051329;28;20475;-62
2023/05/19 07:35:47;;;;;;;9.40;6.60;;;18.20;1.00;;;;;;5050597;28;20021;-62
2023/05/19 07:38:13;;;;;;;10.98;7.15;;;18.40;1.00;;;;;;5053037;28;20064;-62
2023/05/19 07:40:39;;;;;;;9.88;7.78;;;18.40;1.00;;;;;;5049269;28;20471;-62
2023/05/19 07:43:05;;;;;;;10.80;6.38;;;18.40;1.00;;;;;;5053179;28;20429;-62
2023/05/19 07:45:30;;;;;;;8.20;6.60;;;18.50;1.00;;;;;;5046001;28;20060;-62
2023/05/19 07:47:56;;;;;;;11.40;7.50;;;18.50;1.00;;;;;;5051178;28;20087;-62
2023/05/19 07:50:22;;;;;;;9.80;6.63;;;18.50;1.00;;;;;;5049797;28;20028;-62
2023/05/19 07:52:47;;;;;;;9.10;6.53;;;18.50;1.00;;;;;;5046350;28;20025;-62
2023/05/19 07:55:13;;;;;;;10.52;6.88;;;18.40;1.00;;;;;;5043078;28;20021;-62
2023/05/19 07:57:39;;;;;;;9.98;6.32;;;18.40;1.00;;;;;;5045835;28;20031;-62
2023/05/19 08:00:10;;;;;;;10.05;6.88;;;18.40;1.00;;;;;;5051272;28;20033;-62
2023/05/19 08:02:36;;;;;;;9.85;6.80;;;18.40;1.00;;;;;;5053549;28;20090;-62
2023/05/19 08:05:02;;;;;;;10.68;6.55;;;18.40;1.00;;;;;;5052091;28;20108;-62
2023/05/19 08:07:28;;;;;;;9.55;7.40;;;18.50;1.00;;;;;;5053320;28;20025;-62
2023/05/19 08:09:53;;;;;;;8.65;7.22;;;18.50;1.00;;;;;;5051764;28;20613;-62
2023/05/19 08:12:19;;;;;;;10.70;7.70;;;18.60;1.00;;;;;;5051963;28;20021;-62
2023/05/19 08:14:44;;;;;;;10.32;7.80;;;18.50;1.00;;;;;;5053333;28;20086;-62
2023/05/19 08:17:10;;;;;;;12.48;7.85;;;18.60;1.00;;;;;;5052466;28;20029;-62
2023/05/19 08:19:36;;;;;;;9.18;8.05;;;18.70;1.00;;;;;;5052917;28;20033;-62
2023/05/19 08:22:02;;;;;;;8.52;6.50;;;18.80;1.00;;;;;;5051121;28;20032;-62
2023/05/19 08:24:32;;;;;;;9.25;7.47;;;19.00;1.00;;;;;;5052952;28;20017;-62
2023/05/19 08:26:58;;;;;;;14.20;9.40;;;19.10;1.00;;;;;;5050710;28;20039;-62
2023/05/19 08:29:24;;;;;;;9.57;7.75;;;19.20;1.00;;;;;;5051630;28;20029;-62
2023/05/19 08:31:49;;;;;;;9.02;6.63;;;19.30;1.00;;;;;;5053001;28;20029;-62
2023/05/19 08:34:15;;;;;;;8.93;6.80;;;19.20;1.00;;;;;;5052846;28;20112;-62
2023/05/19 08:36:41;;;;;;;11.70;7.72;;;19.30;1.00;;;;;;5052770;28;20068;-62
2023/05/19 08:39:07;;;;;;;7.13;6.43;;;19.30;1.00;;;;;;5049795;28;20363;-62
2023/05/19 08:41:32;;;;;;;9.30;6.85;;;19.30;1.00;;;;;;5052791;28;20494;-62
2023/05/19 08:43:58;;;;;;;12.85;7.85;;;19.30;1.00;;;;;;5052745;28;20029;-62
2023/05/19 08:46:24;;;;;;;8.63;6.60;;;19.50;1.00;;;;;;5050827;28;20471;-62
2023/05/19 08:48:55;;;;;;;7.32;6.25;;;19.50;1.00;;;;;;5052537;28;20144;-62
2023/05/19 08:51:40;;;;;;;8.27;6.13;;;19.50;1.00;;;;;;5050610;28;20061;-62
2023/05/19 08:54:14;;;;;;;8.40;6.90;;;19.50;1.00;;;;;;5049401;28;20477;-62
2023/05/19 08:56:45;;;;;;;12.10;7.88;;;19.40;1.00;;;;;;5052549;28;20565;-62
2023/05/19 08:59:13;;;;;;;10.25;7.63;;;19.40;1.00;;;;;;5050863;28;20033;-62
2023/05/19 09:01:47;;;;;;;9.90;7.82;;;19.40;1.00;;;;;;5047168;28;20059;-62
2023/05/19 09:04:14;;;;;;;10.77;6.75;;;19.20;1.00;;;;;;5053486;28;20120;-62
2023/05/19 09:06:39;;;;;;;9.88;7.70;;;19.10;1.00;;;;;;5052039;28;20423;-61
2023/05/19 09:09:06;;;;;;;8.00;7.00;;;19.20;1.00;;;;;;5052173;28;20064;-62
2023/05/19 09:11:36;;;;;;;17.98;16.30;;;19.30;1.00;;;;;;5050282;28;20025;-62
2023/05/19 09:14:02;;;;;;;12.32;8.90;;;19.30;1.00;;;;;;5051867;28;20036;-62
2023/05/19 09:16:28;;;;;;;10.65;8.48;;;19.40;1.00;;;;;;5050392;28;20032;-62
2023/05/19 09:18:55;;;;;;;9.50;7.38;;;19.40;1.00;;;;;;5048841;28;20037;-62
2023/05/19 09:21:29;;;;;;;10.98;8.32;;;19.30;1.00;;;;;;5042360;28;20029;-63
2023/05/19 09:24:05;;;;;;;9.00;7.47;;;19.10;1.00;;;;;;5048533;28;20060;-63
2023/05/19 09:26:41;;;;;;;11.40;8.13;;;18.90;1.00;;;;;;5049756;28;20055;-63
2023/05/19 09:29:16;;;;;;;10.98;8.70;;;18.80;1.00;;;;;;5052038;28;20459;-63
2023/05/19 09:31:53;;;;;;;13.63;8.77;;;19.00;1.00;;;;;;5050623;28;20094;-62
2023/05/19 09:34:20;;;;;;;10.02;7.88;;;19.10;1.00;;;;;;5050047;28;20033;-63
2023/05/19 09:36:48;;;;;;;10.27;8.57;;;19.20;1.00;;;;;;5048569;28;20049;-62
2023/05/19 09:39:15;;;;;;;10.18;8.52;;;19.10;1.00;;;;;;5039358;28;20482;-62
2023/05/19 09:41:42;;;;;;;10.88;9.15;;;19.20;1.00;;;;;;5051096;28;20123;-63
2023/05/19 09:44:20;;;;;;;13.18;10.80;;;19.20;1.00;;;;;;5051927;28;20132;-63
2023/05/19 09:46:47;;;;;;;11.82;8.40;;;19.10;1.00;;;;;;5047215;28;20423;-63
2023/05/19 09:49:21;;;;;;;14.70;8.98;;;19.10;1.00;;;;;;5051575;28;20052;-63
2023/05/19 09:51:53;;;;;;;11.05;9.82;;;19.10;1.00;;;;;;5050665;28;20385;-64
2023/05/19 09:54:20;;;;;;;14.18;9.73;;;19.10;1.00;;;;;;5051524;28;20024;-63
2023/05/19 09:56:51;;;;;;;11.20;8.82;;;19.10;1.00;;;;;;5050640;28;20025;-61
2023/05/19 09:59:18;;;;;;;13.90;11.13;;;19.00;1.00;;;;;;5051487;28;20033;-62
2023/05/19 10:01:45;;;;;;;11.90;8.50;;;19.00;1.00;;;;;;5050007;28;20109;-62
2023/05/19 10:04:13;;;;;;;11.20;8.77;;;19.10;1.00;;;;;;5047744;28;20090;-63
2023/05/19 10:06:40;;;;;;;13.02;9.27;;;19.10;1.00;;;;;;5047283;28;20124;-63
2023/05/19 10:09:06;;;;;;;10.55;9.40;;;19.10;1.00;;;;;;5051169;28;20438;-63
2023/05/19 10:11:32;;;;;;;12.40;8.75;;;19.10;1.00;;;;;;5040662;28;20036;-62
2023/05/19 10:13:58;;;;;;;10.38;8.23;;;19.10;1.00;;;;;;5049259;28;20414;-62
2023/05/19 10:16:26;;;;;;;11.70;9.60;;;19.00;1.00;;;;;;5049432;28;20477;-62
2023/05/19 10:18:54;;;;;;;13.30;9.73;;;18.90;1.00;;;;;;5047335;28;20441;-62
2023/05/19 10:21:19;;;;;;;11.05;8.38;;;18.90;1.00;;;;;;5048639;28;20052;-63
2023/05/19 10:23:46;;;;;;;12.93;8.90;;;19.00;1.00;;;;;;5049860;28;20071;-62
2023/05/19 10:26:12;;;;;;;10.45;9.30;;;18.90;1.00;;;;;;5051308;28;20029;-61
2023/05/19 10:28:41;;;;;;;12.73;9.82;;;18.90;1.00;;;;;;5049558;28;20098;-61
2023/05/19 10:31:12;;;;;;;10.93;9.82;;;18.80;1.00;;;;;;5050881;28;20048;-61
2023/05/19 10:34:03;;;;;;;12.38;11.02;;;18.80;1.00;;;;;;5045640;28;20050;-61
2023/05/19 10:36:41;;;;;;;12.23;9.90;;;18.90;1.00;;;;;;5043982;28;20045;-61
2023/05/19 10:39:22;;;;;;;12.77;9.98;;;19.00;1.00;;;;;;5054842;28;20037;-61
2023/05/19 10:42:11;;;;;;;10.73;9.35;;;19.00;1.00;;;;;;5050717;28;20127;-61
2023/05/19 10:45:14;;;;;;;12.15;9.48;;;19.00;1.00;;;;;;5049085;28;20029;-61
2023/05/19 10:47:40;;;;;;;17.35;13.45;;;19.10;1.00;;;;;;5052804;28;20443;-61
2023/05/19 10:50:07;;;;;;;13.85;11.55;;;19.20;1.00;;;;;;5053434;28;20359;-61
2023/05/19 10:52:37;;;;;;;10.95;8.15;;;19.20;1.00;;;;;;5052654;28;20513;-61
2023/05/19 10:55:03;;;;;;;13.10;8.30;;;19.10;1.00;;;;;;5053751;28;20060;-61
2023/05/19 10:57:31;;;;;;;19.83;11.52;;;19.10;1.00;;;;;;5048282;28;20116;-61
2023/05/19 11:00:05;;;;;;;13.32;9.45;;;19.00;1.00;;;;;;5052901;28;20048;-61
2023/05/19 11:02:41;;;;;;;10.37;7.97;;;19.10;1.00;;;;;;5052152;28;20027;-61
2023/05/19 11:05:08;;;;;;;10.70;7.13;;;19.10;1.00;;;;;;5044039;28;20033;-61
2023/05/19 11:07:34;;;;;;;9.73;7.55;;;18.90;1.00;;;;;;5053503;28;20104;-61
2023/05/19 11:10:06;;;;;;;10.52;9.02;;;19.00;1.00;;;;;;5053203;28;20025;-61
2023/05/19 11:12:41;;;;;;;14.07;10.05;;;18.90;1.00;;;;;;5054470;28;20079;-61
2023/05/19 11:15:10;;;;;;;11.48;9.60;;;18.70;1.00;;;;;;5054580;28;20132;-61
2023/05/19 11:17:36;;;;;;;11.90;9.82;;;18.60;1.00;;;;;;5052755;28;20050;-61
2023/05/19 11:20:03;;;;;;;12.93;9.85;;;18.60;1.00;;;;;;5049069;28;20040;-61
2023/05/19 11:22:32;;;;;;;15.25;12.93;;;18.70;1.00;;;;;;5051383;28;20040;-61
2023/05/19 11:24:58;;;;;;;13.77;10.82;;;18.80;1.00;;;;;;5052662;28;20032;-61
2023/05/19 11:27:31;;;;;;;11.88;10.38;;;18.80;1.00;;;;;;5053368;28;20029;-61
2023/05/19 11:30:08;;;;;;;10.73;9.60;;;18.80;1.00;;;;;;5053493;28;20021;-61
2023/05/19 11:32:37;;;;;;;12.48;9.52;;;18.80;1.00;;;;;;5053404;28;20143;-61
2023/05/19 11:35:04;;;;;;;14.25;11.68;;;18.90;1.00;;;;;;5048117;28;20494;-61
2023/05/19 11:37:33;;;;;;;12.05;10.77;;;19.00;1.00;;;;;;5042355;28;20049;-61
2023/05/19 11:40:06;;;;;;;12.00;10.80;;;19.10;1.00;;;;;;5049704;28;20632;-61
2023/05/19 11:42:33;;;;;;;12.68;11.07;;;19.20;1.00;;;;;;5061488;28;20052;-61
2023/05/19 11:44:59;;;;;;;14.80;12.05;;;19.10;1.00;;;;;;5053434;28;20145;-61
2023/05/19 11:47:26;;;;;;;14.57;12.68;;;19.00;1.00;;;;;;5052122;28;20025;-61
2023/05/19 11:49:55;;;;;;;12.90;11.60;;;19.10;1.00;;;;;;5050545;28;20482;-61
2023/05/19 11:52:22;;;;;;;17.25;13.63;;;18.80;1.00;;;;;;5052300;28;20044;-61
2023/05/19 11:54:48;;;;;;;17.38;14.18;;;18.80;1.00;;;;;;5051408;28;20040;-61
2023/05/19 11:57:14;;;;;;;14.63;12.35;;;18.90;1.00;;;;;;5047570;28;20021;-61
2023/05/19 11:59:44;;;;;;;14.93;13.25;;;19.10;1.00;;;;;;5053686;28;20043;-62
2023/05/19 12:02:20;;;;;;;16.95;13.00;;;19.10;1.00;;;;;;5052544;28;20029;-61
2023/05/19 12:04:47;;;;;;;16.77;14.93;;;19.10;1.00;;;;;;5052226;28;20029;-61
2023/05/19 12:07:16;;;;;;;14.35;12.88;;;19.00;1.00;;;;;;5049432;28;20029;-62
2023/05/19 12:09:42;;;;;;;22.17;14.55;;;18.90;1.00;;;;;;5053611;28;20025;-62
2023/05/19 12:12:08;;;;;;;18.33;12.85;;;18.80;1.00;;;;;;5053040;28;20646;-62
2023/05/19 12:14:34;;;;;;;15.60;13.02;;;18.80;1.00;;;;;;5053408;28;20111;-63
2023/05/19 12:17:22;;;;;;;14.52;13.02;;;18.70;1.00;;;;;;5051992;28;20029;-62
2023/05/19 12:19:48;;;;;;;19.95;14.93;;;18.50;1.00;;;;;;5053080;28;20028;-62
2023/05/19 12:22:16;;;;;;;14.88;13.10;;;18.50;1.00;;;;;;5051227;28;20569;-62
2023/05/19 12:24:43;;;;;;;14.10;12.23;;;18.60;1.00;;;;;;5046759;28;20044;-63
2023/05/19 12:27:17;;;;;;;17.10;11.60;;;18.60;1.00;;;;;;5050385;28;20017;-63
2023/05/19 12:29:47;;;;;;;13.60;11.55;;;18.50;1.00;;;;;;5053020;28;20016;-62
2023/05/19 12:32:14;;;;;;;13.45;11.95;;;18.50;1.00;;;;;;5044772;28;20025;-62
2023/05/19 12:34:40;;;;;;;14.50;11.95;;;18.60;1.00;;;;;;5051907;28;20087;-62
2023/05/19 12:37:06;;;;;;;13.98;12.00;;;18.60;1.00;;;;;;5050899;28;20052;-62
2023/05/19 12:39:32;;;;;;;13.55;11.93;;;18.50;1.00;;;;;;5048062;28;20032;-62
2023/05/19 12:42:09;;;;;;;13.07;11.68;;;18.60;1.00;;;;;;5050235;28;20025;-62
2023/05/19 12:44:46;;;;;;;14.48;11.75;;;18.60;1.00;;;;;;5052767;28;20040;-62
2023/05/19 12:47:13;;;;;;;15.15;12.05;;;18.50;1.00;;;;;;5050332;28;20469;-62
2023/05/19 12:49:55;;;;;;;12.75;11.50;;;18.60;1.00;;;;;;5052461;28;20013;-62
2023/05/19 12:52:22;;;;;;;15.82;11.63;;;18.60;1.00;;;;;;5047473;28;20041;-62
2023/05/19 12:54:48;;;;;;;12.43;11.15;;;18.30;1.00;;;;;;5049679;28;20032;-62
2023/05/19 12:57:15;;;;;;;14.38;12.00;;;18.30;1.00;;;;;;5049035;28;20081;-62